createdAt,value
2018-11-22T00:02:15.381Z,18.40
2018-11-22T00:04:45.489Z,17.10
2018-11-22T00:07:15.245Z,16.57
2018-11-22T00:09:45.033Z,16.00
2018-11-22T00:12:14.834Z,20.87
2018-11-22T00:14:44.644Z,18.77
2018-11-22T00:17:14.942Z,17.80
2018-11-22T00:19:44.781Z,19.10
2018-11-22T00:22:14.687Z,17.30
2018-11-22T00:24:44.423Z,15.70
2018-11-22T00:27:14.620Z,18.00
2018-11-22T00:29:44.538Z,18.37
2018-11-22T00:32:14.298Z,21.00
2018-11-22T00:34:44.172Z,21.80
2018-11-22T00:37:14.381Z,19.83
2018-11-22T00:39:43.996Z,17.33
2018-11-22T00:42:13.903Z,20.43
2018-11-22T00:44:43.415Z,18.40
2018-11-22T00:47:13.331Z,21.47
2018-11-22T00:49:43.628Z,18.90
2018-11-22T00:52:13.569Z,20.80
2018-11-22T00:54:43.966Z,17.43
2018-11-22T00:57:13.904Z,20.30
2018-11-22T00:59:43.493Z,18.47
2018-11-22T01:02:13.671Z,16.43
2018-11-22T01:04:43.503Z,18.03
2018-11-22T01:07:13.092Z,22.37
2018-11-22T01:09:42.698Z,20.17
2018-11-22T01:12:12.579Z,18.60
2018-11-22T01:14:42.409Z,19.60
2018-11-22T01:17:12.548Z,20.13
2018-11-22T01:19:42.267Z,15.60
2018-11-22T01:22:11.833Z,20.63
2018-11-22T01:24:41.986Z,20.37
2018-11-22T01:27:11.564Z,19.93
2018-11-22T01:29:41.349Z,17.40
2018-11-22T01:32:12.010Z,18.63
2018-11-22T01:34:41.836Z,18.07
2018-11-22T01:37:12.237Z,21.73
2018-11-22T01:39:41.735Z,20.60
2018-11-22T01:42:11.562Z,23.37
2018-11-22T01:44:41.657Z,15.10
2018-11-22T01:47:11.784Z,19.33
2018-11-22T01:49:41.600Z,19.40
2018-11-22T01:52:11.520Z,22.23
2018-11-22T01:54:41.770Z,16.30
2018-11-22T01:57:12.461Z,21.33
2018-11-22T01:59:42.410Z,22.17
2018-11-22T02:02:12.310Z,18.30
2018-11-22T02:04:42.288Z,23.43
2018-11-22T02:07:12.126Z,20.83
2018-11-22T02:09:42.237Z,23.73
2018-11-22T02:12:11.916Z,22.37
2018-11-22T02:14:42.065Z,20.83
2018-11-22T02:17:12.597Z,22.13
2018-11-22T02:19:42.727Z,24.00
2018-11-22T02:22:13.062Z,24.57
2018-11-22T02:24:43.252Z,22.97
2018-11-22T02:27:13.109Z,23.83
2018-11-22T02:29:42.886Z,23.20
2018-11-22T02:32:12.801Z,24.23
2018-11-22T02:34:42.605Z,20.70
2018-11-22T02:37:13.026Z,27.87
2018-11-22T02:39:42.957Z,28.73
2018-11-22T02:42:13.086Z,24.17
2018-11-22T02:44:43.227Z,24.97
2018-11-22T02:47:13.444Z,28.80
2018-11-22T02:49:43.123Z,31.23
2018-11-22T02:52:13.095Z,27.53
2018-11-22T02:54:43.256Z,22.17
2018-11-22T02:57:13.450Z,26.57
2018-11-22T02:59:43.490Z,26.20
2018-11-22T03:02:13.455Z,27.07
2018-11-22T03:04:43.574Z,26.43
2018-11-22T03:07:13.441Z,26.97
2018-11-22T03:09:43.915Z,28.03
2018-11-22T03:12:13.484Z,27.97
2018-11-22T03:14:43.320Z,30.33
2018-11-22T03:17:13.205Z,28.03
2018-11-22T03:19:43.049Z,26.40
2018-11-22T03:22:12.827Z,23.47
2018-11-22T03:24:42.308Z,30.87
2018-11-22T03:27:12.048Z,30.77
2018-11-22T03:29:42.532Z,27.17
2018-11-22T03:32:12.677Z,31.63
2018-11-22T03:34:42.600Z,31.67
2018-11-22T03:37:12.714Z,26.90
2018-11-22T03:39:42.678Z,31.23
2018-11-22T03:42:13.069Z,26.23
2018-11-22T03:44:42.983Z,35.10
2018-11-22T03:47:12.884Z,33.80
2018-11-22T03:49:43.553Z,32.50
2018-11-22T03:52:14.678Z,28.60
2018-11-22T03:54:44.797Z,32.57
2018-11-22T03:57:14.405Z,32.33
2018-11-22T03:59:44.246Z,34.40
2018-11-22T04:02:14.970Z,34.23
2018-11-22T04:04:44.592Z,28.50
2018-11-22T04:07:14.184Z,34.33
2018-11-22T04:09:44.111Z,34.43
2018-11-22T04:12:14.298Z,29.57
2018-11-22T04:14:44.193Z,32.53
2018-11-22T04:17:13.675Z,33.53
2018-11-22T04:19:43.815Z,27.03
2018-11-22T04:22:14.836Z,31.57
2018-11-22T04:24:44.457Z,30.00
2018-11-22T04:27:15.012Z,32.03
2018-11-22T04:29:45.112Z,35.70
2018-11-22T04:32:14.985Z,33.13
2018-11-22T04:34:45.189Z,33.03
2018-11-22T04:37:15.131Z,30.10
2018-11-22T04:39:46.004Z,32.90
2018-11-22T04:42:15.492Z,34.77
2018-11-22T04:44:45.312Z,32.97
2018-11-22T04:47:15.492Z,34.67
2018-11-22T04:49:45.455Z,35.80
2018-11-22T04:52:15.684Z,36.93
2018-11-22T04:54:46.758Z,32.63
2018-11-22T04:57:16.667Z,35.23
2018-11-22T04:59:46.568Z,32.13
2018-11-22T05:02:16.690Z,32.13
2018-11-22T05:04:46.589Z,35.30
2018-11-22T05:07:17.712Z,34.67
2018-11-22T05:09:47.311Z,37.00
2018-11-22T05:12:17.425Z,31.70
2018-11-22T05:14:47.331Z,33.27
2018-11-22T05:17:17.771Z,30.73
2018-11-22T05:19:47.967Z,34.93
2018-11-22T05:22:18.799Z,33.00
2018-11-22T05:24:48.986Z,31.87
2018-11-22T05:27:19.804Z,31.37
2018-11-22T05:29:50.038Z,35.83
2018-11-22T05:32:20.248Z,31.87
2018-11-22T05:34:50.794Z,39.43
2018-11-22T05:37:21.024Z,31.40
2018-11-22T05:39:50.797Z,37.30
2018-11-22T05:42:20.980Z,40.07
2018-11-22T05:44:51.159Z,32.33
2018-11-22T05:47:21.139Z,33.67
2018-11-22T05:49:50.735Z,31.67
2018-11-22T05:52:20.674Z,33.40
2018-11-22T05:54:50.777Z,36.60
2018-11-22T05:57:20.853Z,32.30
2018-11-22T05:59:51.229Z,32.73
2018-11-22T06:02:21.193Z,35.53
2018-11-22T06:04:50.965Z,33.57
2018-11-22T06:07:20.474Z,35.57
2018-11-22T06:09:50.299Z,32.40
2018-11-22T06:12:20.278Z,40.67
2018-11-22T06:14:49.791Z,38.07
2018-11-22T06:17:19.665Z,38.27
2018-11-22T06:19:50.396Z,35.80
2018-11-22T06:22:20.279Z,39.10
2018-11-22T06:24:51.271Z,37.17
2018-11-22T06:27:21.116Z,35.77
2018-11-22T06:29:51.250Z,37.07
2018-11-22T06:32:21.237Z,33.80
2018-11-22T06:34:51.908Z,34.13
2018-11-22T06:37:21.562Z,34.27
2018-11-22T06:39:51.341Z,33.10
2018-11-22T06:42:21.223Z,33.03
2018-11-22T06:44:51.393Z,34.00
2018-11-22T06:47:20.877Z,32.23
2018-11-22T06:49:50.715Z,27.77
2018-11-22T06:52:20.954Z,30.53
2018-11-22T06:54:50.782Z,32.30
2018-11-22T06:57:20.797Z,36.23
2018-11-22T06:59:51.071Z,32.23
2018-11-22T07:02:21.327Z,32.43
2018-11-22T07:04:51.775Z,34.70
2018-11-22T07:07:21.372Z,35.73
2018-11-22T07:09:50.985Z,37.03
2018-11-22T07:12:20.929Z,33.13
2018-11-22T07:14:51.283Z,33.33
2018-11-22T07:17:21.576Z,35.53
2018-11-22T07:19:51.581Z,35.53
2018-11-22T07:22:21.749Z,35.50
2018-11-22T07:24:51.324Z,35.87
2018-11-22T07:27:21.139Z,31.60
2018-11-22T07:29:50.611Z,32.23
2018-11-22T07:32:20.898Z,36.83
2018-11-22T07:34:51.033Z,37.10
2018-11-22T07:37:20.819Z,36.20
2018-11-22T07:39:50.733Z,39.63
2018-11-22T07:42:20.303Z,39.50
2018-11-22T07:44:50.427Z,34.97
2018-11-22T07:47:20.544Z,35.17
2018-11-22T07:49:50.455Z,31.73
2018-11-22T07:52:20.461Z,36.47
2018-11-22T07:54:50.282Z,34.37
2018-11-22T07:57:20.200Z,36.00
2018-11-22T07:59:50.025Z,34.83
2018-11-22T08:02:20.548Z,28.63
2018-11-22T08:04:50.555Z,37.70
2018-11-22T08:07:20.141Z,32.07
2018-11-22T08:09:50.897Z,29.13
2018-11-22T08:12:25.790Z,32.73
2018-11-22T08:14:50.757Z,28.33
2018-11-22T08:17:21.495Z,30.33
2018-11-22T08:19:51.393Z,31.47
2018-11-22T08:22:21.678Z,32.67
2018-11-22T08:24:52.670Z,30.77
2018-11-22T08:27:22.635Z,32.50
2018-11-22T08:29:53.122Z,32.57
2018-11-22T08:32:22.633Z,35.87
2018-11-22T08:34:52.912Z,31.13
2018-11-22T08:37:22.814Z,37.57
2018-11-22T08:39:53.322Z,33.17
2018-11-22T08:42:23.463Z,40.10
2018-11-22T08:44:53.689Z,31.50
2018-11-22T08:47:23.796Z,32.50
2018-11-22T08:49:53.621Z,37.23
2018-11-22T08:52:23.212Z,32.67
2018-11-22T08:54:53.177Z,37.83
2018-11-22T08:57:24.295Z,31.83
2018-11-22T08:59:55.011Z,32.43
2018-11-22T09:02:25.137Z,34.17
2018-11-22T09:04:55.355Z,36.77
2018-11-22T09:07:25.999Z,34.57
2018-11-22T09:09:56.669Z,32.63
2018-11-22T09:12:26.741Z,32.90
2018-11-22T09:14:56.218Z,34.30
2018-11-22T09:17:26.369Z,32.83
2018-11-22T09:19:56.211Z,29.83
2018-11-22T09:22:26.163Z,32.30
2018-11-22T09:24:56.400Z,28.20
2018-11-22T09:27:26.677Z,30.90
2018-11-22T09:29:56.746Z,36.57
2018-11-22T09:32:27.064Z,35.97
2018-11-22T09:34:57.079Z,33.07
2018-11-22T09:37:27.387Z,37.90
2018-11-22T09:39:56.881Z,29.40
2018-11-22T09:42:26.534Z,31.70
2018-11-22T09:44:56.893Z,34.77
2018-11-22T09:47:26.953Z,29.10
2018-11-22T09:49:56.791Z,31.50
2018-11-22T09:52:27.269Z,28.07
2018-11-22T09:54:57.479Z,29.93
2018-11-22T09:57:27.385Z,33.23
2018-11-22T09:59:57.185Z,27.73
2018-11-22T10:02:27.270Z,30.03
2018-11-22T10:04:58.094Z,37.07
2018-11-22T10:07:28.146Z,35.13
2018-11-22T10:09:58.101Z,37.60
2018-11-22T10:12:28.223Z,32.77
2018-11-22T10:14:57.865Z,34.57
2018-11-22T10:17:28.232Z,31.20
2018-11-22T10:19:58.681Z,32.80
2018-11-22T10:22:29.550Z,34.63
2018-11-22T10:24:59.475Z,27.70
2018-11-22T10:27:30.377Z,31.83
2018-11-22T10:30:04.554Z,37.67
2018-11-22T10:32:34.331Z,36.47
2018-11-22T10:35:04.653Z,29.63
2018-11-22T10:37:34.778Z,29.73
2018-11-22T10:40:05.461Z,34.57
2018-11-22T10:42:35.545Z,28.10
2018-11-22T10:45:06.507Z,31.47
2018-11-22T10:47:36.469Z,30.57
2018-11-22T10:50:07.639Z,31.97
2018-11-22T10:52:37.650Z,32.30
2018-11-22T10:55:10.355Z,31.67
2018-11-22T10:57:41.740Z,28.43
2018-11-22T11:00:33.734Z,29.07
2018-11-22T11:03:21.109Z,28.57
2018-11-22T11:06:08.425Z,30.80
2018-11-22T11:08:38.268Z,27.17
2018-11-22T11:11:08.211Z,33.17
2018-11-22T11:13:38.132Z,29.40
2018-11-22T11:16:08.501Z,29.30
2018-11-22T11:18:38.907Z,34.27
2018-11-22T11:21:08.508Z,33.90
2018-11-22T12:16:40.515Z,27.73
2018-11-22T12:19:08.884Z,27.60
2018-11-22T12:21:37.061Z,26.63
2018-11-22T12:24:05.730Z,25.37
2018-11-22T12:26:33.921Z,29.90
2018-11-22T12:29:02.090Z,28.03
2018-11-22T12:31:30.269Z,30.53
2018-11-22T12:34:03.828Z,22.23
2018-11-22T12:37:39.177Z,25.50
2018-11-22T12:40:07.485Z,31.77
2018-11-22T12:42:35.648Z,27.10
2018-11-22T12:45:04.666Z,29.00
2018-11-22T12:47:33.540Z,27.67
2018-11-22T12:50:02.462Z,24.17
2018-11-22T12:52:30.607Z,27.33
2018-11-22T12:54:58.983Z,24.47
2018-11-22T12:57:27.503Z,24.97
2018-11-22T12:59:56.156Z,29.57
2018-11-22T13:02:24.565Z,24.00
2018-11-22T13:04:53.128Z,22.80
2018-11-22T13:07:21.302Z,23.77
2018-11-22T13:09:49.891Z,25.20
2018-11-22T13:12:18.117Z,24.97
2018-11-22T13:14:46.372Z,23.17
2018-11-22T13:17:14.521Z,24.63
2018-11-22T13:19:42.693Z,26.67
2018-11-22T13:22:10.892Z,26.13
2018-11-22T13:24:39.387Z,27.17
2018-11-22T13:27:07.613Z,24.23
2018-11-22T13:29:35.785Z,24.57
2018-11-22T13:32:03.969Z,24.70
2018-11-22T13:34:32.672Z,27.10
2018-11-22T13:37:00.928Z,23.33
2018-11-22T13:39:29.103Z,23.17
2018-11-22T13:41:57.253Z,21.97
2018-11-22T13:44:25.424Z,22.20
2018-11-22T13:46:53.599Z,21.37
2018-11-22T13:49:21.829Z,25.23
2018-11-22T13:51:50.036Z,26.10
2018-11-22T13:54:18.233Z,24.47
2018-11-22T13:56:46.395Z,24.70
2018-11-22T13:59:15.168Z,27.67
2018-11-22T14:01:43.328Z,23.67
2018-11-22T14:04:11.537Z,22.70
2018-11-22T14:06:39.688Z,24.70
2018-11-22T14:09:09.520Z,24.93
2018-11-22T14:11:37.697Z,21.20
2018-11-22T14:14:06.222Z,22.50
2018-11-22T14:16:34.395Z,23.63
2018-11-22T14:19:03.148Z,26.80
2018-11-22T14:21:31.319Z,25.53
2018-11-22T14:24:00.165Z,21.37
2018-11-22T14:26:28.338Z,26.33
2018-11-22T14:28:56.519Z,23.47
2018-11-22T14:31:24.943Z,21.63
2018-11-22T14:33:53.497Z,23.57
2018-11-22T14:36:21.733Z,24.97
2018-11-22T14:38:49.914Z,23.80
2018-11-22T14:41:18.071Z,23.80
2018-11-22T14:43:46.939Z,22.93
2018-11-22T14:46:15.138Z,22.80
2018-11-22T14:48:43.312Z,23.40
2018-11-22T14:51:15.923Z,21.23
2018-11-22T14:53:44.398Z,21.87
2018-11-22T14:56:12.595Z,24.73
2018-11-22T14:58:40.832Z,23.13
2018-11-22T15:01:09.038Z,25.37
2018-11-22T15:03:37.223Z,21.50
2018-11-22T15:06:05.656Z,27.17
2018-11-22T15:08:33.852Z,20.73
2018-11-22T15:11:02.025Z,20.23
2018-11-22T15:13:30.200Z,22.83
2018-11-22T15:15:58.396Z,23.93
2018-11-22T15:18:27.196Z,21.37
2018-11-22T15:21:01.120Z,22.70
2018-11-22T15:23:23.592Z,21.63
2018-11-22T15:25:51.731Z,23.87
2018-11-22T15:28:20.296Z,21.50
2018-11-22T15:30:48.443Z,23.93
2018-11-22T15:33:16.656Z,21.63
2018-11-22T15:35:44.859Z,21.93
2018-11-22T15:38:13.072Z,20.77
2018-11-22T15:40:41.873Z,24.17
2018-11-22T15:43:10.044Z,22.33
2018-11-22T15:45:38.228Z,21.80
2018-11-22T15:48:06.420Z,25.53
2018-11-22T15:50:34.950Z,22.60
2018-11-22T15:53:03.104Z,24.40
2018-11-22T15:55:31.293Z,21.57
2018-11-22T15:58:00.431Z,23.33
2018-11-22T16:00:32.113Z,23.03
2018-11-22T16:03:00.857Z,24.47
2018-11-22T16:05:29.436Z,27.70
2018-11-22T16:07:57.633Z,24.90
2018-11-22T16:30:34.562Z,23.47
2018-11-22T16:33:02.890Z,26.47
2018-11-22T16:35:33.552Z,24.03
2018-11-22T16:38:00.372Z,30.33
2018-11-22T16:40:29.442Z,25.00
2018-11-22T16:42:59.082Z,26.10
2018-11-22T16:45:30.630Z,24.37
2018-11-22T16:48:00.076Z,25.97
2018-11-22T16:50:29.514Z,26.33
2018-11-22T16:52:57.862Z,25.93
2018-11-22T16:55:26.882Z,27.77
2018-11-22T16:57:56.212Z,24.63
2018-11-22T17:00:33.639Z,27.33
2018-11-22T17:03:03.388Z,24.17
2018-11-22T17:05:31.732Z,28.77
2018-11-22T17:08:00.650Z,27.17
2018-11-22T17:10:30.084Z,26.10
2018-11-22T17:12:59.535Z,28.53
2018-11-22T17:15:29.382Z,25.93
2018-11-22T17:17:58.151Z,25.63
2018-11-22T17:20:27.271Z,27.87
2018-11-22T17:22:55.799Z,25.70
2018-11-22T17:25:25.333Z,28.57
2018-11-22T17:27:57.094Z,24.70
2018-11-22T17:30:27.860Z,26.07
2018-11-22T17:33:00.438Z,26.53
2018-11-22T17:35:29.370Z,30.47
2018-11-22T17:37:59.512Z,25.13
2018-11-22T17:40:38.010Z,27.43
2018-11-22T17:43:06.973Z,23.83
2018-11-22T17:45:37.679Z,27.33
2018-11-22T17:48:06.508Z,29.67
2018-11-22T17:50:36.561Z,31.50
2018-11-22T17:53:05.346Z,28.87
2018-11-22T17:55:34.162Z,26.37
2018-11-22T17:58:02.502Z,31.03
2018-11-22T18:00:32.326Z,31.63
2018-11-22T18:03:01.657Z,29.17
2018-11-22T18:05:29.898Z,25.37
2018-11-22T18:07:58.154Z,27.20
2018-11-22T18:10:27.916Z,25.03
2018-11-22T18:12:56.581Z,26.53
2018-11-22T18:15:25.879Z,30.43
2018-11-22T18:17:54.750Z,26.03
2018-11-22T18:20:27.442Z,27.40
2018-11-22T18:22:56.830Z,24.47
2018-11-22T18:25:27.622Z,25.80
2018-11-22T18:27:56.862Z,32.80
2018-11-22T18:30:27.528Z,27.93
2018-11-22T18:32:57.014Z,26.83
2018-11-22T18:35:25.291Z,29.20
2018-11-22T18:37:53.659Z,29.20
2018-11-22T18:40:24.110Z,25.07
2018-11-22T18:42:53.456Z,31.63
2018-11-22T18:45:27.115Z,31.13
2018-11-22T18:47:55.704Z,28.57
2018-11-22T18:50:25.100Z,27.63
2018-11-22T18:52:53.501Z,26.23
2018-11-22T18:55:21.945Z,26.30
2018-11-22T18:57:50.535Z,29.90
2018-11-22T19:00:22.269Z,26.23
2018-11-22T19:02:50.967Z,25.53
2018-11-22T19:05:19.691Z,27.27
2018-11-22T19:07:49.124Z,25.27
2018-11-22T19:10:36.630Z,26.37
2018-11-22T19:13:06.399Z,27.00
2018-11-22T19:15:36.718Z,29.17
2018-11-22T19:18:05.510Z,27.00
2018-11-22T19:20:35.315Z,27.30
2018-11-22T19:23:04.511Z,24.33
2018-11-22T19:25:32.767Z,30.23
2018-11-22T19:28:01.980Z,30.33
2018-11-22T19:30:37.078Z,28.47
2018-11-22T19:33:01.415Z,28.37
2018-11-22T19:35:31.733Z,28.87
2018-11-22T19:38:00.826Z,26.40
2018-11-22T19:40:30.440Z,28.60
2018-11-22T19:43:00.149Z,25.83
2018-11-22T19:45:29.949Z,25.03
2018-11-22T19:47:58.226Z,27.73
2018-11-22T19:50:27.526Z,29.97
2018-11-22T19:52:56.521Z,27.23
2018-11-22T19:55:27.390Z,28.40
2018-11-22T19:57:58.390Z,29.90
2018-11-22T20:00:27.281Z,25.07
2018-11-22T20:02:57.311Z,26.07
2018-11-22T20:05:26.400Z,26.70
2018-11-22T20:07:56.226Z,26.93
2018-11-22T20:10:27.023Z,25.40
2018-11-22T20:12:55.361Z,24.77
2018-11-22T20:15:23.699Z,26.20
2018-11-22T20:17:52.648Z,26.63
2018-11-22T20:20:21.579Z,26.50
2018-11-22T20:22:50.023Z,28.43
2018-11-22T20:25:18.295Z,26.57
2018-11-22T20:27:46.554Z,28.43
2018-11-22T20:30:17.021Z,27.60
2018-11-22T20:32:45.630Z,29.37
2018-11-22T20:35:15.570Z,26.70
2018-11-22T20:37:44.627Z,27.00
2018-11-22T20:40:14.258Z,27.57
2018-11-22T20:42:42.714Z,27.30
2018-11-22T20:45:12.930Z,28.03
2018-11-22T20:47:41.940Z,27.97
2018-11-22T20:50:12.628Z,27.63
2018-11-22T20:52:40.990Z,29.23
2018-11-22T20:55:13.646Z,25.37
2018-11-22T20:57:41.946Z,26.17
2018-11-22T21:00:13.550Z,23.30
2018-11-22T21:02:41.851Z,26.37
2018-11-22T21:05:11.117Z,27.50
2018-11-22T21:07:39.630Z,26.97
2018-11-22T21:10:10.226Z,27.20
2018-11-22T21:12:39.026Z,28.13
2018-11-22T21:15:11.406Z,29.50
2018-11-22T21:17:39.904Z,25.47
2018-11-22T21:20:09.403Z,28.57
2018-11-22T21:22:37.855Z,25.47
2018-11-22T21:25:07.973Z,24.57
2018-11-22T21:27:36.326Z,22.83
2018-11-22T21:30:07.537Z,25.53
2018-11-22T21:32:35.871Z,24.67
2018-11-22T21:35:04.625Z,24.80
2018-11-22T21:37:32.831Z,23.97
2018-11-22T21:40:01.065Z,26.20
2018-11-22T21:42:29.367Z,25.00
2018-11-22T21:44:57.685Z,23.50
2018-11-22T21:47:25.919Z,23.63
2018-11-22T21:49:54.122Z,23.20
2018-11-22T21:52:22.371Z,25.20
2018-11-22T21:54:50.660Z,19.57
2018-11-22T21:57:18.909Z,22.87
2018-11-22T21:59:47.178Z,26.40
2018-11-22T22:02:15.511Z,27.23
2018-11-22T22:04:43.731Z,22.37
2018-11-22T22:07:12.043Z,24.57
2018-11-22T22:09:40.475Z,26.30
2018-11-22T22:12:09.887Z,23.90
2018-11-22T22:14:38.226Z,23.23
2018-11-22T22:17:06.438Z,23.23
2018-11-22T22:19:34.744Z,27.60
2018-11-22T22:22:03.070Z,28.03
2018-11-22T22:24:31.415Z,25.30
2018-11-22T22:26:59.608Z,25.17
2018-11-22T22:29:27.838Z,25.23
2018-11-22T22:31:56.363Z,25.37
2018-11-22T22:34:24.637Z,23.20
2018-11-22T22:36:52.871Z,27.27
2018-11-22T22:39:21.261Z,27.30
2018-11-22T22:41:49.504Z,24.47
2018-11-22T22:44:17.822Z,25.83
2018-11-22T22:46:46.234Z,25.57
2018-11-22T22:49:14.607Z,32.27
2018-11-22T22:51:42.950Z,25.93
2018-11-22T22:54:11.208Z,24.87
2018-11-22T22:56:39.714Z,24.33
2018-11-22T22:59:08.634Z,26.80
2018-11-22T23:01:36.967Z,27.40
2018-11-22T23:04:05.395Z,26.47
2018-11-22T23:06:33.763Z,22.93
2018-11-22T23:09:02.228Z,25.60
2018-11-22T23:11:30.697Z,26.77
2018-11-22T23:13:59.412Z,26.60
2018-11-22T23:16:27.657Z,23.80
2018-11-22T23:18:55.927Z,27.13
2018-11-22T23:21:24.987Z,24.83
2018-11-22T23:23:53.501Z,26.07
2018-11-22T23:26:21.743Z,25.07
2018-11-22T23:28:49.982Z,24.93
2018-11-22T23:31:18.227Z,25.53
2018-11-22T23:33:46.461Z,24.57
2018-11-22T23:36:14.764Z,26.10
2018-11-22T23:38:43.060Z,23.80
2018-11-22T23:41:11.303Z,25.60
2018-11-22T23:43:39.533Z,24.60
2018-11-22T23:46:07.959Z,25.10
2018-11-22T23:48:36.287Z,27.37
2018-11-22T23:51:04.899Z,25.30
2018-11-22T23:53:33.171Z,27.30
2018-11-22T23:56:01.446Z,26.63
2018-11-22T23:58:29.760Z,23.53
